Time;durP1;ratioP1;P1;durP2;ratioP2;P2;SDS_P1;SDS_P2;PMS_P1;PMS_P2;Temp;Humidity;BMP_temperature;BMP_pressure;BME280_temperature;BME280_humidity;BME280_pressure;Samples;Min_cycle;Max_cycle;Signal;HPM_P1;HPM_P2
2022/04/09 00:02:26;;;;;;;0.50;0.40;;;4.40;99.90;;;;;;5051494;28;20202;-76
2022/04/09 00:04:53;;;;;;;0.50;0.47;;;4.50;99.90;;;;;;5051362;28;20402;-75
2022/04/09 00:07:19;;;;;;;1.50;1.40;;;4.50;99.90;;;;;;5051066;28;20204;-77
2022/04/09 00:09:46;;;;;;;0.50;0.40;;;4.50;99.90;;;;;;5050613;28;20204;-76
2022/04/09 00:12:14;;;;;;;14.25;0.90;;;4.50;99.90;;;;;;5051146;28;20602;-76
2022/04/09 00:14:41;;;;;;;0.50;0.50;;;4.40;99.90;;;;;;5051028;28;20221;-76
2022/04/09 00:17:09;;;;;;;2.20;2.10;;;4.40;99.90;;;;;;5050708;28;20671;-75
2022/04/09 00:19:36;;;;;;;0.60;0.50;;;4.40;99.90;;;;;;5050382;28;20210;-76
2022/04/09 00:22:03;;;;;;;0.50;0.40;;;4.40;99.90;;;;;;5049368;28;20212;-74
2022/04/09 00:24:30;;;;;;;0.50;0.40;;;4.30;99.90;;;;;;5050720;28;20213;-76
2022/04/09 00:26:56;;;;;;;0.50;0.40;;;4.40;99.90;;;;;;5051035;28;20207;-74
2022/04/09 00:29:24;;;;;;;0.60;0.50;;;4.40;99.90;;;;;;5052069;28;20198;-76
2022/04/09 00:31:51;;;;;;;0.50;0.40;;;4.40;99.90;;;;;;5054626;28;20202;-77
2022/04/09 00:34:18;;;;;;;1.77;1.05;;;4.40;99.90;;;;;;5055290;28;20587;-76
2022/04/09 00:36:44;;;;;;;0.50;0.40;;;4.30;99.90;;;;;;5054864;28;20204;-76
2022/04/09 00:39:11;;;;;;;0.50;0.40;;;4.30;99.90;;;;;;5053772;28;20223;-79
2022/04/09 00:41:41;;;;;;;0.50;0.40;;;4.30;99.90;;;;;;5055158;28;20221;-76
2022/04/09 00:44:16;;;;;;;0.50;0.50;;;4.30;99.90;;;;;;5055012;28;20312;-76
2022/04/09 00:46:44;;;;;;;0.50;0.40;;;4.20;99.90;;;;;;5054583;28;20568;-76
2022/04/09 00:49:11;;;;;;;0.50;0.40;;;4.20;99.90;;;;;;5054350;28;20205;-75
2022/04/09 00:51:41;;;;;;;1.58;0.85;;;4.20;99.90;;;;;;5054750;28;20202;-75
2022/04/09 00:54:08;;;;;;;0.50;0.40;;;4.20;99.90;;;;;;5054704;28;20600;-76
2022/04/09 00:56:37;;;;;;;0.60;0.50;;;4.10;99.90;;;;;;5054737;28;20201;-76
2022/04/09 00:59:06;;;;;;;1.05;1.05;;;4.10;99.90;;;;;;5053868;28;20569;-76
2022/04/09 01:01:34;;;;;;;0.75;0.45;;;4.00;99.90;;;;;;5054480;28;20201;-76
2022/04/09 01:04:06;;;;;;;0.50;0.40;;;4.00;99.90;;;;;;5054630;28;20619;-76
2022/04/09 01:06:34;;;;;;;0.50;0.50;;;3.90;99.90;;;;;;5054227;28;20186;-75
2022/04/09 01:09:00;;;;;;;0.50;0.40;;;3.90;99.90;;;;;;5053533;28;20194;-72
2022/04/09 01:11:27;;;;;;;0.50;0.40;;;3.90;99.90;;;;;;5054153;28;20216;-76
2022/04/09 01:13:54;;;;;;;0.50;0.47;;;3.80;99.90;;;;;;5053822;28;20596;-73
2022/04/09 01:16:22;;;;;;;0.50;0.40;;;3.80;99.90;;;;;;5105214;22;20224;-79
2022/04/09 01:18:49;;;;;;;0.50;0.40;;;3.90;99.90;;;;;;5073702;28;20193;-77
2022/04/09 01:21:17;;;;;;;0.50;0.40;;;4.00;99.90;;;;;;5073426;28;20198;-78
2022/04/09 01:23:45;;;;;;;0.50;0.40;;;4.00;99.90;;;;;;5075064;28;20689;-79
2022/04/09 01:26:12;;;;;;;0.50;0.40;;;3.90;99.90;;;;;;5054906;28;20228;-79
2022/04/09 01:28:39;;;;;;;0.63;0.63;;;3.90;99.90;;;;;;5054482;28;20198;-80
2022/04/09 01:31:06;;;;;;;1.52;1.50;;;3.90;99.90;;;;;;5053939;28;20193;-79
2022/04/09 01:33:32;;;;;;;1.13;0.82;;;3.90;99.90;;;;;;5054333;28;20236;-79
2022/04/09 01:35:59;;;;;;;1.73;1.63;;;3.90;99.90;;;;;;5054391;28;20225;-79
2022/04/09 01:38:26;;;;;;;0.50;0.40;;;3.90;99.90;;;;;;5054488;28;20560;-79
2022/04/09 01:40:55;;;;;;;0.50;0.40;;;4.00;99.90;;;;;;5053633;28;20193;-79
2022/04/09 01:43:21;;;;;;;0.88;0.50;;;4.00;99.90;;;;;;5054123;28;20209;-79
2022/04/09 01:45:48;;;;;;;0.50;0.50;;;4.10;99.90;;;;;;5054247;28;20225;-78
2022/04/09 01:48:15;;;;;;;0.50;0.40;;;4.20;99.90;;;;;;5054130;28;20201;-79
2022/04/09 01:50:42;;;;;;;0.50;0.40;;;4.30;99.90;;;;;;5053408;28;20213;-79
2022/04/09 01:53:09;;;;;;;1.25;0.75;;;4.30;99.90;;;;;;5053859;28;20195;-79
2022/04/09 01:55:35;;;;;;;1.52;1.42;;;4.40;99.90;;;;;;5054411;28;20228;-79
2022/04/09 01:58:03;;;;;;;0.50;0.40;;;4.50;99.90;;;;;;5054105;28;20297;-79
2022/04/09 02:00:30;;;;;;;0.50;0.40;;;4.60;99.90;;;;;;5053245;28;20201;-79
2022/04/09 02:02:57;;;;;;;0.50;0.40;;;4.60;99.90;;;;;;5053467;28;20679;-75
2022/04/09 02:05:25;;;;;;;1.73;1.48;;;4.60;99.90;;;;;;5053671;28;20252;-79
2022/04/09 02:07:52;;;;;;;0.50;0.40;;;4.60;99.90;;;;;;5053389;28;20263;-78
2022/04/09 02:10:19;;;;;;;0.50;0.40;;;4.50;99.90;;;;;;5053764;28;20659;-79
2022/04/09 02:12:48;;;;;;;0.50;0.40;;;4.50;99.90;;;;;;5053741;28;20201;-80
2022/04/09 02:15:17;;;;;;;0.98;0.82;;;4.40;99.90;;;;;;5053560;28;20696;-79
2022/04/09 02:17:45;;;;;;;1.08;0.98;;;4.40;99.90;;;;;;5053489;28;20202;-79
2022/04/09 02:20:13;;;;;;;0.50;0.40;;;4.40;99.90;;;;;;5052688;28;20191;-79
2022/04/09 02:22:42;;;;;;;0.60;0.50;;;4.40;99.90;;;;;;5053238;28;20205;-76
2022/04/09 02:25:11;;;;;;;0.60;0.60;;;4.40;99.90;;;;;;5055201;28;20210;-79
2022/04/09 02:27:38;;;;;;;0.50;0.40;;;4.50;99.90;;;;;;5055402;28;20197;-79
2022/04/09 02:30:07;;;;;;;0.60;0.57;;;4.40;99.90;;;;;;5054136;28;20198;-79
2022/04/09 02:32:46;;;;;;;0.50;0.40;;;4.50;99.90;;;;;;5054498;28;20198;-79
2022/04/09 02:35:14;;;;;;;0.73;0.60;;;4.50;99.90;;;;;;5054782;28;20233;-79
2022/04/09 02:37:41;;;;;;;0.50;0.40;;;4.50;99.90;;;;;;5054133;28;20203;-77
2022/04/09 02:40:09;;;;;;;0.50;0.40;;;4.60;99.90;;;;;;5053168;28;20197;-79
2022/04/09 02:42:36;;;;;;;0.50;0.40;;;4.50;99.90;;;;;;5055136;28;20335;-80
2022/04/09 02:45:04;;;;;;;0.50;0.40;;;4.60;99.90;;;;;;5054720;28;20283;-79
2022/04/09 02:47:31;;;;;;;0.50;0.40;;;4.60;99.90;;;;;;5054844;28;20266;-79
2022/04/09 02:49:59;;;;;;;0.80;0.80;;;4.50;99.90;;;;;;5053572;28;20194;-78
2022/04/09 02:52:27;;;;;;;0.52;0.52;;;4.50;99.90;;;;;;5053811;28;20714;-79
2022/04/09 02:54:54;;;;;;;0.50;0.40;;;4.50;99.90;;;;;;5054541;28;20218;-79
2022/04/09 02:57:21;;;;;;;0.50;0.40;;;4.50;99.90;;;;;;5054625;28;20224;-78
2022/04/09 02:59:49;;;;;;;0.50;0.47;;;4.40;99.90;;;;;;5053304;28;20194;-79
2022/04/09 03:02:16;;;;;;;0.50;0.40;;;4.40;99.90;;;;;;5052991;28;20672;-76
2022/04/09 03:04:42;;;;;;;0.50;0.40;;;4.30;99.90;;;;;;5054120;28;20537;-78
2022/04/09 03:07:10;;;;;;;0.80;0.80;;;4.30;99.90;;;;;;5054016;28;20217;-79
2022/04/09 03:09:37;;;;;;;0.50;0.40;;;4.20;99.90;;;;;;5054689;28;20655;-81
2022/04/09 03:12:05;;;;;;;0.52;0.47;;;4.10;99.90;;;;;;5053549;28;20715;-79
2022/04/09 03:14:32;;;;;;;0.50;0.40;;;4.00;99.90;;;;;;5054323;28;20214;-79
2022/04/09 03:16:58;;;;;;;0.50;0.40;;;4.00;99.90;;;;;;5053827;28;20225;-79
2022/04/09 03:19:25;;;;;;;0.50;0.40;;;4.00;99.90;;;;;;5052712;28;20576;-79
2022/04/09 03:21:52;;;;;;;0.50;0.40;;;3.90;99.90;;;;;;5052353;28;20619;-80
2022/04/09 03:24:20;;;;;;;0.50;0.50;;;3.90;99.90;;;;;;5054559;28;20190;-78
2022/04/09 03:26:46;;;;;;;0.60;0.50;;;3.90;99.90;;;;;;5053877;28;20249;-79
2022/04/09 03:29:13;;;;;;;0.50;0.40;;;3.90;99.90;;;;;;5053193;28;20563;-79
2022/04/09 03:31:40;;;;;;;0.55;0.52;;;3.80;99.90;;;;;;5053617;28;20263;-79
2022/04/09 03:34:07;;;;;;;0.50;0.40;;;3.80;99.90;;;;;;5053736;28;20218;-80
2022/04/09 03:36:34;;;;;;;0.50;0.40;;;3.70;99.90;;;;;;5053930;28;20224;-79
2022/04/09 03:39:01;;;;;;;1.90;0.98;;;3.70;99.90;;;;;;5052991;28;20568;-79
2022/04/09 03:41:29;;;;;;;0.50;0.40;;;3.80;99.90;;;;;;5053171;28;20206;-79
2022/04/09 03:43:55;;;;;;;0.50;0.40;;;3.80;99.90;;;;;;5053443;28;20213;-79
2022/04/09 03:46:22;;;;;;;1.13;0.98;;;3.80;99.90;;;;;;5053681;28;20579;-79
2022/04/09 03:48:49;;;;;;;0.50;0.40;;;3.80;99.90;;;;;;5053146;28;20210;-78
2022/04/09 03:51:16;;;;;;;0.50;0.50;;;3.70;99.90;;;;;;5053820;28;20214;-80
2022/04/09 03:53:43;;;;;;;0.50;0.50;;;3.70;99.90;;;;;;5053469;28;20206;-78
2022/04/09 03:56:09;;;;;;;0.50;0.40;;;3.60;99.90;;;;;;5053408;28;20225;-79
2022/04/09 03:58:38;;;;;;;0.50;0.50;;;3.60;99.90;;;;;;5053665;28;20203;-79
2022/04/09 04:01:05;;;;;;;0.98;0.98;;;3.50;99.90;;;;;;5053158;28;20947;-79
2022/04/09 04:03:34;;;;;;;2.03;1.92;;;3.50;99.90;;;;;;5053793;28;20198;-79
2022/04/09 04:06:01;;;;;;;0.50;0.40;;;3.40;99.90;;;;;;5054161;28;20510;-79
2022/04/09 04:08:28;;;;;;;1.67;1.65;;;3.40;99.90;;;;;;5053386;28;20704;-79
2022/04/09 04:10:55;;;;;;;0.50;0.40;;;3.40;99.90;;;;;;5053478;28;20198;-74
2022/04/09 04:13:22;;;;;;;0.98;0.70;;;3.30;99.90;;;;;;5053881;28;20683;-79
2022/04/09 04:15:50;;;;;;;0.57;0.57;;;3.30;99.90;;;;;;5055032;28;20225;-75
2022/04/09 04:18:17;;;;;;;0.50;0.40;;;3.30;99.90;;;;;;5054880;28;20202;-79
2022/04/09 04:20:44;;;;;;;0.88;0.88;;;3.30;99.90;;;;;;5054652;28;20201;-77
2022/04/09 04:23:10;;;;;;;0.50;0.50;;;3.30;99.90;;;;;;5052913;28;20195;-79
2022/04/09 04:25:37;;;;;;;0.50;0.40;;;3.30;99.90;;;;;;5053690;28;20221;-80
2022/04/09 04:28:04;;;;;;;0.50;0.40;;;3.30;99.90;;;;;;5053903;28;20202;-79
2022/04/09 04:30:31;;;;;;;0.50;0.40;;;3.30;99.90;;;;;;5053949;28;20205;-79
2022/04/09 04:32:59;;;;;;;0.55;0.50;;;3.20;99.90;;;;;;5054838;28;20201;-76
2022/04/09 04:35:26;;;;;;;0.50;0.40;;;3.30;99.90;;;;;;5054630;28;20220;-79
2022/04/09 04:37:54;;;;;;;7.63;2.65;;;3.20;99.90;;;;;;5054467;28;20797;-78
2022/04/09 04:40:21;;;;;;;1.30;1.20;;;3.40;99.90;;;;;;5053276;28;20229;-79
2022/04/09 04:42:49;;;;;;;0.90;0.90;;;3.40;99.90;;;;;;5053198;28;20201;-79
2022/04/09 04:45:16;;;;;;;0.50;0.40;;;3.50;99.90;;;;;;5053026;28;20569;-79
2022/04/09 04:47:44;;;;;;;0.50;0.40;;;3.50;99.90;;;;;;5053217;28;20691;-78
2022/04/09 04:50:13;;;;;;;0.60;0.50;;;3.50;99.90;;;;;;5051047;28;20198;-79
2022/04/09 04:52:39;;;;;;;0.50;0.40;;;3.50;99.90;;;;;;5051383;28;20202;-78
2022/04/09 04:55:08;;;;;;;0.50;0.40;;;3.60;99.90;;;;;;5051162;28;20236;-79
2022/04/09 04:57:41;;;;;;;0.50;0.40;;;3.60;99.90;;;;;;5051361;28;20572;-78
2022/04/09 05:00:09;;;;;;;1.67;1.58;;;3.70;99.90;;;;;;5050167;28;20189;-78
2022/04/09 05:02:36;;;;;;;1.23;1.15;;;3.80;99.90;;;;;;5051044;28;20194;-78
2022/04/09 05:05:03;;;;;;;2.05;1.95;;;3.80;99.90;;;;;;5050596;28;20193;-77
2022/04/09 05:07:39;;;;;;;0.50;0.40;;;3.90;99.90;;;;;;5051237;28;20201;-77
2022/04/09 05:10:07;;;;;;;0.50;0.40;;;3.90;99.90;;;;;;5049745;28;20203;-77
2022/04/09 05:12:34;;;;;;;0.50;0.40;;;4.00;99.90;;;;;;5050438;28;20210;-77
2022/04/09 05:15:01;;;;;;;0.50;0.40;;;4.00;99.90;;;;;;5051747;28;20253;-77
2022/04/09 05:17:27;;;;;;;0.50;0.50;;;4.10;99.90;;;;;;5054436;28;20293;-77
2022/04/09 05:19:54;;;;;;;0.50;0.40;;;4.10;99.90;;;;;;5053588;28;20205;-72
2022/04/09 05:22:21;;;;;;;0.50;0.50;;;4.20;99.90;;;;;;5053186;28;20202;-77
2022/04/09 05:24:49;;;;;;;0.50;0.40;;;4.20;99.90;;;;;;5054192;28;20187;-75
2022/04/09 05:27:16;;;;;;;3.42;0.88;;;4.30;99.90;;;;;;5054236;28;20289;-77
2022/04/09 05:29:42;;;;;;;0.50;0.40;;;4.30;99.90;;;;;;5052907;28;20572;-77
2022/04/09 05:32:09;;;;;;;2.97;1.25;;;4.30;99.90;;;;;;5054481;28;20213;-77
2022/04/09 05:34:36;;;;;;;0.50;0.43;;;4.30;99.90;;;;;;5053948;28;20686;-77
2022/04/09 05:37:03;;;;;;;0.95;0.95;;;4.30;99.90;;;;;;5053914;28;20222;-78
2022/04/09 05:39:30;;;;;;;0.50;0.40;;;4.20;99.90;;;;;;5053224;28;20201;-77
2022/04/09 05:41:58;;;;;;;0.65;0.65;;;4.20;99.90;;;;;;5053741;28;20195;-77
2022/04/09 05:44:25;;;;;;;0.50;0.40;;;4.30;99.90;;;;;;5054029;28;20667;-74
2022/04/09 05:46:51;;;;;;;0.50;0.40;;;4.30;99.90;;;;;;5053800;28;20249;-77
2022/04/09 05:49:18;;;;;;;0.50;0.40;;;4.30;99.90;;;;;;5053673;28;20598;-78
2022/04/09 05:51:45;;;;;;;0.50;0.40;;;4.40;99.90;;;;;;5053641;28;20203;-77
2022/04/09 05:54:11;;;;;;;0.50;0.40;;;4.50;99.90;;;;;;5053533;28;20199;-77
2022/04/09 05:56:38;;;;;;;0.50;0.40;;;4.60;99.90;;;;;;5053403;28;20222;-77
2022/04/09 05:59:07;;;;;;;0.50;0.50;;;4.70;99.90;;;;;;5053217;28;20575;-77
2022/04/09 06:01:34;;;;;;;0.70;0.68;;;4.70;99.90;;;;;;5053106;28;20205;-77
2022/04/09 06:04:01;;;;;;;0.50;0.40;;;4.80;99.90;;;;;;5053490;28;20623;-74
2022/04/09 06:06:28;;;;;;;0.50;0.40;;;4.80;99.90;;;;;;5053595;28;20221;-77
2022/04/09 06:08:54;;;;;;;0.50;0.40;;;4.80;99.90;;;;;;5053200;28;20195;-75
2022/04/09 06:11:22;;;;;;;0.50;0.40;;;4.90;99.90;;;;;;5052891;28;20688;-77
2022/04/09 06:13:48;;;;;;;0.50;0.40;;;4.90;99.90;;;;;;5053512;28;20252;-77
2022/04/09 06:16:16;;;;;;;0.50;0.50;;;4.90;99.90;;;;;;5052983;28;20219;-77
2022/04/09 06:18:43;;;;;;;0.50;0.40;;;5.00;99.90;;;;;;5053528;28;20663;-74
2022/04/09 06:21:13;;;;;;;1.00;0.90;;;5.10;99.90;;;;;;5052780;28;20202;-77
2022/04/09 06:23:40;;;;;;;0.50;0.40;;;5.00;99.90;;;;;;5052136;28;20619;-77
2022/04/09 06:26:07;;;;;;;0.50;0.40;;;5.10;99.90;;;;;;5052443;28;20215;-77
2022/04/09 06:28:34;;;;;;;1.05;0.93;;;6.00;99.90;;;;;;5053006;28;20219;-77
2022/04/09 06:31:00;;;;;;;2.65;0.65;;;7.20;99.90;;;;;;5052225;28;20199;-77
2022/04/09 06:33:29;;;;;;;1.13;0.70;;;8.60;99.90;;;;;;5053051;28;20199;-77
2022/04/09 06:35:55;;;;;;;0.80;0.77;;;9.10;99.90;;;;;;5052588;28;20223;-77
2022/04/09 06:38:22;;;;;;;0.50;0.40;;;9.80;99.90;;;;;;5052988;28;20319;-78
2022/04/09 06:40:49;;;;;;;0.50;0.40;;;11.00;99.90;;;;;;5052431;28;20225;-77
2022/04/09 06:43:16;;;;;;;0.50;0.40;;;11.90;99.90;;;;;;5052960;28;20694;-76
2022/04/09 06:45:42;;;;;;;1.17;1.07;;;12.80;99.90;;;;;;5052583;28;20461;-76
2022/04/09 06:48:09;;;;;;;0.83;0.67;;;12.90;99.90;;;;;;5052357;28;20443;-77
2022/04/09 06:50:37;;;;;;;0.50;0.40;;;13.50;99.90;;;;;;5052201;28;20812;-77
2022/04/09 06:53:04;;;;;;;1.33;1.23;;;13.90;99.90;;;;;;5052759;28;20201;-78
2022/04/09 06:55:31;;;;;;;0.50;0.50;;;13.60;99.90;;;;;;5052760;28;20477;-78
2022/04/09 06:58:01;;;;;;;0.50;0.40;;;11.60;99.90;;;;;;5052554;28;20205;-77
2022/04/09 07:00:28;;;;;;;0.50;0.40;;;11.50;99.90;;;;;;5051390;28;20432;-77
2022/04/09 07:02:55;;;;;;;0.50;0.40;;;11.50;99.90;;;;;;5052681;28;20208;-77
2022/04/09 07:05:22;;;;;;;0.50;0.40;;;12.10;99.90;;;;;;5052518;28;20449;-78
2022/04/09 07:07:50;;;;;;;0.50;0.50;;;13.10;99.90;;;;;;5052489;28;20199;-77
2022/04/09 07:10:17;;;;;;;0.50;0.40;;;13.20;99.90;;;;;;5050982;28;20437;-78
2022/04/09 07:12:44;;;;;;;0.50;0.40;;;12.60;99.90;;;;;;5052863;28;20659;-75
2022/04/09 07:15:11;;;;;;;0.50;0.40;;;12.20;99.90;;;;;;5052196;28;21094;-76
2022/04/09 07:17:38;;;;;;;0.50;0.40;;;11.70;99.90;;;;;;5075977;23;20230;-83
2022/04/09 07:20:07;;;;;;;0.50;0.40;;;11.30;99.90;;;;;;5061337;28;20209;-82
2022/04/09 07:22:35;;;;;;;0.50;0.40;;;11.70;99.90;;;;;;5054739;28;20762;-82
2022/04/09 07:25:05;;;;;;;0.63;0.50;;;11.70;99.90;;;;;;5056591;28;20202;-83
2022/04/09 07:27:36;;;;;;;1.02;1.02;;;10.80;99.90;;;;;;5056057;28;20225;-81
2022/04/09 07:30:04;;;;;;;5.95;2.67;;;9.90;99.90;;;;;;5055077;28;20200;-82
2022/04/09 07:32:31;;;;;;;0.50;0.40;;;8.90;99.90;;;;;;5056074;28;20568;-81
2022/04/09 07:34:57;;;;;;;0.50;0.40;;;8.10;99.90;;;;;;5055194;28;20192;-81
2022/04/09 07:37:24;;;;;;;4.13;1.70;;;8.50;99.90;;;;;;5055763;28;20221;-82
2022/04/09 07:39:51;;;;;;;0.50;0.40;;;9.70;99.90;;;;;;5055110;28;20195;-83
2022/04/09 07:42:20;;;;;;;0.88;0.88;;;9.90;99.90;;;;;;5056025;28;20197;-82
2022/04/09 07:44:47;;;;;;;0.60;0.50;;;9.70;99.90;;;;;;5056105;28;20204;-83
2022/04/09 07:47:14;;;;;;;0.50;0.40;;;9.20;99.90;;;;;;5056078;28;20212;-83
2022/04/09 07:49:44;;;;;;;0.98;0.50;;;8.40;99.90;;;;;;5055288;28;20294;-83
2022/04/09 07:52:10;;;;;;;0.50;0.40;;;7.90;99.90;;;;;;5067379;28;20196;-80
2022/04/09 07:54:37;;;;;;;3.92;1.60;;;7.40;99.90;;;;;;5070601;28;20202;-81
2022/04/09 07:57:04;;;;;;;0.50;0.50;;;7.20;99.90;;;;;;5071712;28;20231;-80
2022/04/09 07:59:33;;;;;;;0.93;0.93;;;7.10;99.90;;;;;;5060817;28;20207;-82
2022/04/09 08:01:59;;;;;;;0.50;0.40;;;7.20;99.90;;;;;;5054875;28;20548;-83
2022/04/09 08:04:26;;;;;;;0.50;0.40;;;7.40;99.90;;;;;;5055311;28;20202;-83
2022/04/09 08:06:53;;;;;;;1.95;1.23;;;7.80;99.90;;;;;;5054219;28;20700;-82
2022/04/09 08:09:19;;;;;;;3.60;1.58;;;8.30;99.90;;;;;;5054277;28;20198;-82
2022/04/09 08:11:46;;;;;;;0.50;0.40;;;8.60;99.90;;;;;;5055340;28;20604;-82
2022/04/09 08:14:13;;;;;;;0.68;0.68;;;8.90;99.90;;;;;;5055881;28;20258;-82
2022/04/09 08:16:41;;;;;;;1.30;1.05;;;9.10;99.90;;;;;;5054691;28;20225;-82
2022/04/09 08:19:08;;;;;;;0.50;0.40;;;9.30;99.90;;;;;;5054119;28;20178;-81
2022/04/09 08:21:35;;;;;;;0.50;0.40;;;10.20;99.90;;;;;;5054610;28;20608;-82
2022/04/09 08:24:02;;;;;;;0.52;0.45;;;10.80;99.90;;;;;;5055575;28;20213;-82
2022/04/09 08:26:28;;;;;;;0.98;0.98;;;10.80;99.90;;;;;;5055277;28;20224;-82
2022/04/09 08:28:56;;;;;;;5.85;1.20;;;12.10;99.90;;;;;;5054488;28;20200;-83
2022/04/09 08:31:23;;;;;;;0.50;0.40;;;11.70;99.90;;;;;;5055247;28;20213;-82
2022/04/09 08:33:51;;;;;;;0.52;0.40;;;11.10;99.90;;;;;;5055205;28;20629;-83
2022/04/09 08:36:17;;;;;;;0.50;0.50;;;10.40;99.90;;;;;;5054723;28;20217;-83
2022/04/09 08:38:44;;;;;;;1.77;1.50;;;9.90;99.90;;;;;;5055135;28;20194;-81
2022/04/09 08:41:14;;;;;;;1.67;1.58;;;9.50;99.90;;;;;;5054525;28;20201;-81
2022/04/09 08:43:41;;;;;;;0.50;0.50;;;9.20;99.90;;;;;;5055117;28;20194;-82
2022/04/09 08:46:08;;;;;;;5.35;0.95;;;9.10;99.90;;;;;;5055582;28;20281;-82
2022/04/09 08:48:37;;;;;;;0.75;0.70;;;9.00;99.90;;;;;;5056131;28;20200;-83
2022/04/09 08:51:05;;;;;;;3.92;1.80;;;9.80;99.90;;;;;;5058014;28;20264;-83
2022/04/09 08:53:32;;;;;;;18.25;1.48;;;10.50;99.90;;;;;;5058932;28;20197;-82
2022/04/09 08:55:59;;;;;;;1.67;1.58;;;11.20;99.90;;;;;;5058420;28;20583;-82
2022/04/09 08:58:25;;;;;;;0.50;0.40;;;12.50;99.90;;;;;;5058707;28;20215;-83
2022/04/09 09:00:52;;;;;;;0.50;0.40;;;13.70;99.90;;;;;;5058646;28;20195;-83
2022/04/09 09:03:19;;;;;;;0.80;0.53;;;14.30;99.00;;;;;;5058516;28;20440;-82
2022/04/09 09:05:52;;;;;;;0.50;0.40;;;14.50;96.70;;;;;;5058543;28;20433;-82
2022/04/09 09:08:36;;;;;;;0.50;0.40;;;15.20;92.00;;;;;;5063563;28;20475;-82
2022/04/09 09:11:03;;;;;;;0.50;0.40;;;14.70;89.70;;;;;;5057834;28;20417;-82
2022/04/09 09:13:30;;;;;;;0.60;0.50;;;14.30;91.50;;;;;;5058352;28;20433;-82
2022/04/09 09:15:57;;;;;;;0.70;0.70;;;13.60;90.50;;;;;;5059053;28;20491;-82
2022/04/09 09:18:25;;;;;;;0.50;0.40;;;12.20;95.40;;;;;;5057902;28;20484;-82
2022/04/09 09:20:53;;;;;;;4.97;0.88;;;11.40;99.90;;;;;;5057840;28;20208;-83
2022/04/09 09:23:22;;;;;;;0.50;0.50;;;10.40;99.90;;;;;;5057166;28;20198;-82
2022/04/09 09:25:50;;;;;;;0.80;0.60;;;10.20;99.90;;;;;;5058263;28;20232;-83
2022/04/09 09:28:24;;;;;;;1.35;1.35;;;10.00;99.90;;;;;;5057746;28;20217;-83
2022/04/09 09:30:51;;;;;;;1.15;1.15;;;9.80;99.90;;;;;;5057822;28;20187;-82
2022/04/09 09:33:18;;;;;;;0.50;0.47;;;9.90;99.90;;;;;;5057989;28;20202;-82
2022/04/09 09:35:49;;;;;;;0.57;0.52;;;9.80;99.90;;;;;;5058341;28;20255;-82
2022/04/09 09:38:24;;;;;;;1.63;0.60;;;9.70;99.90;;;;;;5057922;28;20217;-83
2022/04/09 09:40:52;;;;;;;0.50;0.50;;;9.10;99.90;;;;;;5057610;28;20196;-83
2022/04/09 09:43:20;;;;;;;0.50;0.40;;;8.70;99.90;;;;;;5057765;28;20203;-82
2022/04/09 09:45:48;;;;;;;0.60;0.60;;;8.60;99.90;;;;;;5057572;28;20279;-83
2022/04/09 09:48:26;;;;;;;0.50;0.43;;;8.70;99.90;;;;;;5057622;28;20221;-81
2022/04/09 09:50:55;;;;;;;0.50;0.40;;;9.40;99.90;;;;;;5057450;28;20498;-83
2022/04/09 09:53:31;;;;;;;1.60;0.63;;;9.20;99.90;;;;;;5062364;28;20200;-80
2022/04/09 09:55:58;;;;;;;0.50;0.40;;;8.90;99.90;;;;;;5071870;28;20231;-82
2022/04/09 09:58:27;;;;;;;0.50;0.40;;;8.70;99.90;;;;;;5069310;28;20279;-80
2022/04/09 10:00:55;;;;;;;0.60;0.60;;;8.90;99.90;;;;;;5067605;28;20207;-81
2022/04/09 10:03:22;;;;;;;0.50;0.40;;;10.30;99.90;;;;;;5069116;28;20199;-82
2022/04/09 10:05:50;;;;;;;0.70;0.70;;;12.00;99.90;;;;;;5068422;28;20198;-82
2022/04/09 10:08:17;;;;;;;0.50;0.40;;;13.20;99.90;;;;;;5066586;28;20469;-83
2022/04/09 10:10:48;;;;;;;0.50;0.40;;;14.50;99.90;;;;;;5063154;28;20441;-80
2022/04/09 10:13:19;;;;;;;0.50;0.40;;;16.10;99.90;;;;;;5061583;28;20431;-80
2022/04/09 10:15:50;;;;;;;0.50;0.40;;;17.20;88.50;;;;;;5065985;28;20441;-82
2022/04/09 10:18:22;;;;;;;2.50;0.90;;;17.70;81.60;;;;;;5058049;28;20504;-82
2022/04/09 10:20:52;;;;;;;0.50;0.30;;;17.90;78.50;;;;;;5057912;28;20838;-83
2022/04/09 10:23:20;;;;;;;1.17;0.50;;;18.10;76.30;;;;;;5057139;28;20548;-82
2022/04/09 10:25:51;;;;;;;1.03;0.93;;;18.60;76.80;;;;;;5057481;28;20484;-82
2022/04/09 10:28:30;;;;;;;1.37;1.27;;;19.20;74.30;;;;;;5057332;28;20533;-83
2022/04/09 10:30:57;;;;;;;0.80;0.40;;;19.50;70.20;;;;;;5056797;28;20472;-82
2022/04/09 10:33:27;;;;;;;0.60;0.60;;;19.00;68.20;;;;;;5057058;28;20449;-82
2022/04/09 10:35:55;;;;;;;0.50;0.30;;;18.30;67.30;;;;;;5057317;28;20440;-82
2022/04/09 10:38:23;;;;;;;0.50;0.37;;;18.90;68.20;;;;;;5057201;28;20843;-82
2022/04/09 10:41:24;;;;;;;1.00;0.60;;;19.10;66.30;;;;;;5046197;28;20460;-83
2022/04/09 10:43:52;;;;;;;0.50;0.40;;;17.40;64.20;;;;;;5056356;28;20848;-82
2022/04/09 10:46:21;;;;;;;0.50;0.30;;;16.30;66.60;;;;;;5056306;28;20438;-81
2022/04/09 10:48:48;;;;;;;2.60;0.70;;;16.10;70.80;;;;;;5056333;28;20452;-81
2022/04/09 10:51:16;;;;;;;0.70;0.60;;;16.20;68.70;;;;;;5056049;28;21013;-84
2022/04/09 10:53:45;;;;;;;0.80;0.80;;;15.50;69.70;;;;;;5056640;28;20845;-83
2022/04/09 10:56:14;;;;;;;0.60;0.50;;;14.80;71.50;;;;;;5056560;28;20815;-82
2022/04/09 10:59:01;;;;;;;1.83;1.73;;;14.30;72.90;;;;;;5057696;28;20438;-83
2022/04/09 11:01:50;;;;;;;0.50;0.40;;;13.20;76.00;;;;;;5055790;28;20462;-81
2022/04/09 11:04:36;;;;;;;1.02;0.80;;;11.50;98.90;;;;;;5055905;28;20448;-81
2022/04/09 11:07:04;;;;;;;0.50;0.40;;;9.60;99.90;;;;;;5054764;28;20226;-81
2022/04/09 11:09:43;;;;;;;4.72;0.68;;;8.70;99.90;;;;;;5054557;28;20200;-83
2022/04/09 11:12:09;;;;;;;0.50;0.40;;;8.30;99.90;;;;;;5055569;28;20185;-83
2022/04/09 11:14:45;;;;;;;0.50;0.40;;;7.80;99.90;;;;;;5055130;28;20560;-81
2022/04/09 11:17:33;;;;;;;1.17;0.57;;;7.50;99.90;;;;;;5054899;28;20244;-83
2022/04/09 11:20:06;;;;;;;0.50;0.40;;;7.30;99.90;;;;;;5054180;28;20675;-83
2022/04/09 11:22:35;;;;;;;0.50;0.40;;;6.80;99.90;;;;;;5054020;28;20443;-83
2022/04/09 11:25:02;;;;;;;0.50;0.40;;;6.30;99.90;;;;;;5056463;28;20202;-83
2022/04/09 11:27:29;;;;;;;0.50;0.40;;;5.80;99.90;;;;;;5055249;28;20230;-83
2022/04/09 11:29:58;;;;;;;0.50;0.40;;;5.70;99.90;;;;;;5054917;28;20202;-81
2022/04/09 11:32:26;;;;;;;0.50;0.40;;;5.80;99.90;;;;;;5054784;28;20195;-81
2022/04/09 11:34:55;;;;;;;0.50;0.40;;;6.10;99.90;;;;;;5054617;28;20225;-81
2022/04/09 11:37:23;;;;;;;0.50;0.40;;;6.80;99.90;;;;;;5053284;28;20228;-81
2022/04/09 11:39:52;;;;;;;0.50;0.40;;;8.00;99.90;;;;;;5053398;28;20195;-81
2022/04/09 11:42:18;;;;;;;0.50;0.40;;;9.00;99.90;;;;;;5052914;28;20249;-81
2022/04/09 11:44:46;;;;;;;0.50;0.40;;;9.70;99.90;;;;;;5054143;28;20202;-82
2022/04/09 11:47:16;;;;;;;0.50;0.40;;;10.50;99.90;;;;;;5053733;28;20234;-83
2022/04/09 11:49:44;;;;;;;0.50;0.40;;;11.70;99.90;;;;;;5053051;28;20206;-81
2022/04/09 11:52:12;;;;;;;0.50;0.40;;;12.30;99.90;;;;;;5053333;28;20441;-82
2022/04/09 11:54:43;;;;;;;0.50;0.40;;;11.90;99.90;;;;;;5054192;28;20815;-84
2022/04/09 11:57:12;;;;;;;0.50;0.40;;;11.30;99.90;;;;;;5054861;28;20271;-81
2022/04/09 11:59:40;;;;;;;0.50;0.40;;;10.80;99.90;;;;;;5053547;28;20198;-81
2022/04/09 12:02:20;;;;;;;0.50;0.40;;;10.30;99.90;;;;;;5054765;28;20518;-81
2022/04/09 12:04:47;;;;;;;0.50;0.40;;;9.70;99.90;;;;;;5054138;28;20197;-82
2022/04/09 12:07:14;;;;;;;0.50;0.40;;;9.30;99.90;;;;;;5053765;28;20209;-82
2022/04/09 12:09:42;;;;;;;0.50;0.40;;;9.10;99.90;;;;;;5053292;28;20201;-81
2022/04/09 12:12:09;;;;;;;0.50;0.40;;;9.30;99.90;;;;;;5054028;28;20560;-80
2022/04/09 12:14:36;;;;;;;0.50;0.40;;;10.30;99.90;;;;;;5053735;28;20201;-83
2022/04/09 12:17:13;;;;;;;0.60;0.50;;;12.30;99.90;;;;;;5054400;28;20218;-81
2022/04/09 12:19:43;;;;;;;0.50;0.40;;;13.80;99.90;;;;;;5053985;28;20464;-82
2022/04/09 12:22:19;;;;;;;0.70;0.70;;;15.10;99.90;;;;;;5053921;28;20469;-81
2022/04/09 12:24:51;;;;;;;0.50;0.30;;;16.40;99.90;;;;;;5056044;28;20790;-80
2022/04/09 12:27:18;;;;;;;0.50;0.40;;;17.00;99.90;;;;;;5058918;28;20754;-82
2022/04/09 12:29:50;;;;;;;0.50;0.40;;;16.60;95.40;;;;;;5057839;28;20807;-83
2022/04/09 12:32:20;;;;;;;0.50;0.40;;;15.10;90.40;;;;;;5059265;28;20953;-83
2022/04/09 12:34:58;;;;;;;1.07;0.97;;;14.00;99.90;;;;;;5058504;28;20443;-80
2022/04/09 12:37:26;;;;;;;0.50;0.40;;;13.40;99.90;;;;;;5058987;28;20481;-80
2022/04/09 12:40:04;;;;;;;0.50;0.40;;;12.90;99.90;;;;;;5057805;28;20437;-81
2022/04/09 12:42:31;;;;;;;0.50;0.40;;;12.60;99.90;;;;;;5058643;28;20421;-83
2022/04/09 12:45:15;;;;;;;0.80;0.60;;;12.00;99.90;;;;;;5057741;28;20455;-81
2022/04/09 12:47:43;;;;;;;0.60;0.55;;;11.40;99.90;;;;;;5058708;28;20248;-82
2022/04/09 12:50:24;;;;;;;0.50;0.40;;;10.80;99.90;;;;;;5057257;28;20225;-82
2022/04/09 12:52:51;;;;;;;0.82;0.60;;;10.40;99.90;;;;;;5057729;28;20205;-82
2022/04/09 12:55:20;;;;;;;0.50;0.40;;;10.00;99.90;;;;;;5057917;28;20200;-81
2022/04/09 12:57:47;;;;;;;0.50;0.40;;;10.30;99.90;;;;;;5057764;28;20226;-83
2022/04/09 13:00:14;;;;;;;1.13;1.13;;;11.70;99.90;;;;;;5057273;28;20203;-82